Time;durP1;ratioP1;P1;durP2;ratioP2;P2;SDS_P1;SDS_P2;PMS_P1;PMS_P2;Temp;Humidity;BMP_temperature;BMP_pressure;BME280_temperature;BME280_humidity;BME280_pressure;Samples;Min_cycle;Max_cycle;Signal;HPM_P1;HPM_P2
2022/07/02 00:00:59;;;;;;;20.42;12.52;;;;;;;14.68;87.05;101688.69;5025466;28;20041;-69
2022/07/02 00:03:32;;;;;;;18.90;12.55;;;;;;;14.94;85.50;101694.25;5026512;28;20482;-69
2022/07/02 00:06:00;;;;;;;23.80;13.73;;;;;;;14.98;85.09;101694.94;5026588;28;20476;-68
2022/07/02 00:08:28;;;;;;;22.80;12.48;;;;;;;14.83;85.35;101691.34;5026086;28;20110;-68
2022/07/02 00:10:56;;;;;;;21.08;12.55;;;;;;;14.79;85.53;101689.81;5022247;28;20456;-68
2022/07/02 00:13:24;;;;;;;22.40;11.60;;;;;;;14.72;86.32;101701.63;5014138;28;20049;-68
2022/07/02 00:15:52;;;;;;;19.55;11.20;;;;;;;14.84;85.64;101695.72;5016482;28;20041;-68
2022/07/02 00:18:20;;;;;;;22.25;11.40;;;;;;;14.94;84.58;101696.06;5025195;28;20087;-68
2022/07/02 00:20:47;;;;;;;25.63;11.75;;;;;;;14.84;84.87;101689.56;5024061;28;20069;-68
2022/07/02 00:23:14;;;;;;;20.70;11.70;;;;;;;14.87;85.39;101689.41;5026029;28;20045;-68
2022/07/02 00:25:42;;;;;;;20.17;11.18;;;;;;;15.14;83.38;101687.03;5023499;28;20041;-68
2022/07/02 00:28:12;;;;;;;17.52;10.50;;;;;;;15.34;82.00;101686.75;5019809;28;20509;-69
2022/07/02 00:30:39;;;;;;;16.80;9.98;;;;;;;15.36;81.03;101683.13;5013595;28;20065;-68
2022/07/02 00:33:11;;;;;;;14.52;9.77;;;;;;;15.37;80.02;101689.25;5015299;28;20065;-69
2022/07/02 00:35:38;;;;;;;20.60;10.10;;;;;;;15.50;78.87;101687.63;5019818;28;20098;-69
2022/07/02 00:38:05;;;;;;;15.20;9.73;;;;;;;15.24;79.31;101696.16;5022929;28;20628;-68
2022/07/02 00:40:32;;;;;;;16.27;9.55;;;;;;;15.09;78.86;101693.44;5015869;28;20046;-68
2022/07/02 00:42:59;;;;;;;16.85;9.52;;;;;;;14.94;80.09;101690.75;5022066;28;20095;-68
2022/07/02 00:45:27;;;;;;;17.85;10.18;;;;;;;14.93;80.68;101683.78;5016419;28;20416;-68
2022/07/02 00:47:55;;;;;;;13.85;8.73;;;;;;;14.82;80.79;101680.91;5002817;28;20520;-69
2022/07/02 00:50:24;;;;;;;21.08;9.20;;;;;;;14.84;80.54;101681.66;5009145;28;20219;-68
2022/07/02 00:52:50;;;;;;;18.42;9.38;;;;;;;14.49;82.76;101684.38;5019790;28;20042;-69
2022/07/02 00:55:17;;;;;;;17.27;8.82;;;;;;;14.61;82.32;101685.53;5006435;28;20046;-68
2022/07/02 00:57:46;;;;;;;13.88;9.25;;;;;;;14.59;81.99;101696.19;5006560;28;20420;-68
2022/07/02 01:00:15;;;;;;;18.05;9.90;;;;;;;14.57;82.32;101702.47;5013803;28;20689;-68
2022/07/02 01:02:43;;;;;;;15.95;9.80;;;;;;;14.54;82.65;101692.06;5018384;28;20062;-69
2022/07/02 01:05:10;;;;;;;15.60;10.45;;;;;;;14.60;82.42;101692.59;5013534;28;20065;-68
2022/07/02 01:07:39;;;;;;;15.70;9.38;;;;;;;14.80;81.38;101688.03;5009516;28;20046;-68
2022/07/02 01:10:19;;;;;;;16.60;8.93;;;;;;;14.60;81.48;101692.59;5006954;28;20123;-69
2022/07/02 01:12:47;;;;;;;20.58;10.45;;;;;;;14.71;81.33;101694.66;5025442;28;20045;-68
2022/07/02 01:15:14;;;;;;;13.15;9.27;;;;;;;14.71;80.60;101699.94;5022028;28;20042;-69
2022/07/02 01:17:40;;;;;;;17.95;8.80;;;;;;;14.85;80.08;101699.22;5024251;28;20065;-68
2022/07/02 01:20:08;;;;;;;19.02;9.43;;;;;;;14.71;80.25;101688.53;5025106;28;20458;-68
2022/07/02 01:22:37;;;;;;;14.77;9.18;;;;;;;14.71;80.68;101693.81;5023297;28;20081;-68
2022/07/02 01:25:05;;;;;;;16.95;10.18;;;;;;;14.72;81.38;101695.50;5026572;28;20103;-68
2022/07/02 01:27:32;;;;;;;15.45;9.23;;;;;;;14.59;81.66;101701.47;5018009;28;20053;-68
2022/07/02 01:29:58;;;;;;;18.17;8.63;;;;;;;14.63;81.03;101692.41;5013933;28;20092;-68
2022/07/02 01:32:24;;;;;;;18.10;8.90;;;;;;;14.57;81.06;101691.91;5014997;28;20100;-68
2022/07/02 01:34:52;;;;;;;11.60;8.07;;;;;;;14.43;80.95;101697.06;5025418;28;20533;-68
2022/07/02 01:37:21;;;;;;;15.43;8.30;;;;;;;14.53;81.00;101699.13;5017286;28;20077;-68
2022/07/02 01:39:49;;;;;;;11.48;8.23;;;;;;;14.46;80.76;101710.94;5023869;28;20072;-68
2022/07/02 01:42:16;;;;;;;13.65;8.90;;;;;;;14.53;80.22;101711.47;5015541;28;20119;-69
2022/07/02 01:44:44;;;;;;;12.85;8.23;;;;;;;14.42;80.18;101704.13;5026861;28;20128;-69
2022/07/02 01:47:11;;;;;;;11.82;8.35;;;;;;;14.55;80.30;101705.19;5023868;28;20151;-69
2022/07/02 01:49:38;;;;;;;10.60;7.25;;;;;;;14.71;79.30;101701.75;5020744;28;20049;-68
2022/07/02 01:52:06;;;;;;;11.38;7.43;;;;;;;14.45;78.54;101706.59;5023882;28;20069;-69
2022/07/02 01:54:33;;;;;;;10.25;6.93;;;;;;;14.21;79.73;101705.22;5024664;28;20057;-69
2022/07/02 01:57:01;;;;;;;15.32;9.57;;;;;;;14.02;80.99;101704.44;5014278;28;20034;-68
2022/07/02 01:59:28;;;;;;;14.80;8.60;;;;;;;14.04;81.91;101703.41;5024488;28;20045;-68
2022/07/02 02:01:54;;;;;;;14.65;9.23;;;;;;;14.31;82.07;101708.22;5025930;28;20099;-69
2022/07/02 02:04:21;;;;;;;14.35;8.32;;;;;;;14.18;80.78;101709.78;5006734;28;20873;-69
2022/07/02 02:06:47;;;;;;;13.82;7.97;;;;;;;14.02;80.37;101712.34;5022551;28;20045;-69
2022/07/02 02:09:14;;;;;;;17.80;9.10;;;;;;;13.76;82.87;101713.66;5026694;28;20132;-69
2022/07/02 02:11:40;;;;;;;12.98;8.65;;;;;;;13.76;84.33;101713.66;5026936;28;20042;-69
2022/07/02 02:14:08;;;;;;;13.55;7.43;;;;;;;13.75;83.69;101718.97;5022897;28;20100;-69
2022/07/02 02:16:34;;;;;;;15.48;7.57;;;;;;;13.52;83.96;101717.50;5013657;28;20061;-69
2022/07/02 02:19:01;;;;;;;14.27;8.82;;;;;;;13.33;87.00;101728.06;5011125;28;20119;-69
2022/07/02 02:21:29;;;;;;;16.63;9.98;;;;;;;13.47;87.76;101732.66;5027497;28;20061;-69
2022/07/02 02:23:56;;;;;;;17.45;9.88;;;;;;;13.49;87.58;101736.91;5027128;28;20071;-69
2022/07/02 02:26:23;;;;;;;14.25;8.65;;;;;;;13.43;85.68;101736.38;5016437;28;20073;-69
2022/07/02 02:28:50;;;;;;;16.35;8.93;;;;;;;13.56;85.39;101743.59;5020864;28;20069;-68
2022/07/02 02:31:17;;;;;;;15.70;7.88;;;;;;;13.58;84.97;101743.53;5023063;28;20077;-69
2022/07/02 02:33:44;;;;;;;14.90;9.52;;;;;;;13.38;86.48;101741.84;5026110;28;20072;-69
2022/07/02 02:36:10;;;;;;;14.48;9.55;;;;;;;13.49;86.76;101750.09;5027753;28;20126;-69
2022/07/02 02:38:37;;;;;;;23.70;9.65;;;;;;;13.69;85.28;101754.41;5027574;28;20068;-69
2022/07/02 02:41:05;;;;;;;12.45;9.18;;;;;;;13.72;83.74;101754.25;5024594;28;20118;-69
2022/07/02 02:43:32;;;;;;;11.93;7.47;;;;;;;13.87;83.36;101753.50;5018133;28;20096;-69
2022/07/02 02:45:58;;;;;;;16.10;8.30;;;;;;;13.72;82.79;101756.03;5005963;28;20701;-69
2022/07/02 02:48:26;;;;;;;15.55;8.93;;;;;;;13.43;84.28;101755.66;5006779;28;20482;-68
2022/07/02 02:50:52;;;;;;;19.92;10.18;;;;;;;13.72;84.10;101758.66;5023621;28;20067;-68
2022/07/02 02:53:19;;;;;;;15.73;9.05;;;;;;;13.76;83.71;101768.13;5026699;28;20096;-68
2022/07/02 02:55:45;;;;;;;20.48;9.90;;;;;;;13.77;84.33;101767.22;5024562;28;20041;-69
2022/07/02 02:58:11;;;;;;;15.77;9.07;;;;;;;13.70;83.35;101766.69;5026669;28;20072;-68
2022/07/02 03:00:38;;;;;;;20.67;9.10;;;;;;;13.73;83.28;101769.16;5017602;28;20053;-68
2022/07/02 03:03:04;;;;;;;12.18;8.15;;;;;;;13.65;83.45;101774.78;5018141;28;20061;-68
2022/07/02 03:05:32;;;;;;;11.85;7.82;;;;;;;13.59;82.64;101779.50;5026153;28;20045;-68
2022/07/02 03:07:58;;;;;;;19.90;9.50;;;;;;;13.37;85.30;101778.81;5020665;28;20105;-68
2022/07/02 03:10:24;;;;;;;19.45;8.82;;;;;;;13.29;86.36;101779.16;5006870;28;20127;-68
2022/07/02 03:12:51;;;;;;;20.00;9.60;;;;;;;13.43;86.24;101779.38;5021554;28;20554;-68
2022/07/02 03:15:17;;;;;;;20.30;10.30;;;;;;;13.38;87.41;101788.41;5018398;28;20111;-68
2022/07/02 03:17:44;;;;;;;22.33;8.77;;;;;;;13.65;86.09;101787.97;5026789;28;20148;-68
2022/07/02 03:20:11;;;;;;;17.08;10.00;;;;;;;13.75;85.32;101792.78;5023968;28;20053;-68
2022/07/02 03:22:39;;;;;;;17.13;10.00;;;;;;;13.80;84.07;101803.97;5025999;28;20119;-68
2022/07/02 03:25:06;;;;;;;15.52;9.55;;;;;;;13.70;84.74;101792.16;5025986;28;20041;-69
2022/07/02 03:27:33;;;;;;;13.93;9.00;;;;;;;13.80;84.19;101804.84;5025395;28;20045;-69
2022/07/02 03:29:59;;;;;;;21.45;11.05;;;;;;;13.52;86.31;101797.41;5025528;28;20045;-69
2022/07/02 03:32:28;;;;;;;17.20;10.88;;;;;;;13.25;88.09;101800.44;5026532;28;20057;-69
2022/07/02 03:34:54;;;;;;;18.73;10.35;;;;;;;13.15;89.69;101798.22;5025592;28;20041;-69
2022/07/02 03:37:23;;;;;;;18.80;11.20;;;;;;;13.33;89.90;101799.19;5032889;28;20048;-69
2022/07/02 03:39:50;;;;;;;23.67;11.70;;;;;;;13.33;89.85;101804.44;5018687;28;20605;-68
2022/07/02 03:42:17;;;;;;;26.10;11.68;;;;;;;13.14;91.54;101800.94;5025944;28;20095;-68
2022/07/02 03:44:43;;;;;;;19.75;10.65;;;;;;;13.23;91.13;101808.41;5026003;28;20115;-68
2022/07/02 03:47:09;;;;;;;17.27;10.68;;;;;;;13.31;91.25;101805.41;5020187;28;20045;-68
2022/07/02 03:49:36;;;;;;;21.17;10.65;;;;;;;13.71;89.22;101804.44;5025803;28;20072;-68
2022/07/02 03:52:02;;;;;;;20.13;10.73;;;;;;;13.95;88.35;101808.50;5026449;28;20045;-68
2022/07/02 03:54:28;;;;;;;17.63;10.40;;;;;;;14.22;86.65;101809.81;5025764;28;20049;-68
2022/07/02 03:56:57;;;;;;;26.77;11.05;;;;;;;14.00;87.29;101812.66;5025241;28;20099;-68
2022/07/02 03:59:24;;;;;;;27.13;10.10;;;;;;;14.02;88.02;101821.31;5023722;28;20395;-68
2022/07/02 04:01:50;;;;;;;18.25;9.68;;;;;;;14.21;86.63;101810.72;5028995;28;20044;-68
2022/07/02 04:04:16;;;;;;;19.02;9.55;;;;;;;13.99;87.96;101816.19;5014119;28;20061;-68
2022/07/02 04:06:43;;;;;;;16.80;9.75;;;;;;;13.84;88.80;101822.22;5016259;28;20073;-68
2022/07/02 04:09:09;;;;;;;20.50;10.07;;;;;;;14.45;86.00;101814.78;5008582;28;20057;-68
2022/07/02 04:11:35;;;;;;;17.33;10.15;;;;;;;14.58;85.31;101815.03;5016894;28;20135;-68
2022/07/02 04:14:04;;;;;;;16.35;9.75;;;;;;;14.65;84.63;101818.19;5020797;28;20291;-68
2022/07/02 04:16:31;;;;;;;15.00;9.85;;;;;;;15.09;82.42;101814.94;5022346;28;20056;-68
2022/07/02 04:18:57;;;;;;;15.18;9.50;;;;;;;15.30;81.68;101812.91;5016394;28;20049;-68
2022/07/02 04:21:23;;;;;;;20.05;9.98;;;;;;;15.36;81.60;101817.03;5041603;28;20469;-68
2022/07/02 04:23:50;;;;;;;19.38;9.55;;;;;;;14.97;83.04;101817.38;5045811;28;20045;-68
2022/07/02 04:26:16;;;;;;;18.08;9.93;;;;;;;14.88;84.21;101831.06;5045347;28;20122;-68
2022/07/02 04:28:43;;;;;;;16.58;9.10;;;;;;;14.65;85.36;101826.97;5044942;28;20060;-68
2022/07/02 04:31:10;;;;;;;22.55;11.18;;;;;;;14.53;86.89;101823.16;5046085;28;20045;-68
2022/07/02 04:33:37;;;;;;;13.45;8.82;;;;;;;14.94;85.57;101812.25;5022680;28;20130;-68
2022/07/02 04:36:03;;;;;;;15.60;8.70;;;;;;;14.91;85.54;101820.34;5024829;28;20115;-68
2022/07/02 04:38:30;;;;;;;13.65;9.25;;;;;;;14.70;86.63;101826.75;5020684;28;20045;-68
2022/07/02 04:40:56;;;;;;;18.23;9.20;;;;;;;14.70;87.48;101826.75;5024458;28;20471;-68
2022/07/02 04:43:22;;;;;;;18.70;9.13;;;;;;;14.60;88.13;101829.84;5023856;28;20559;-68
2022/07/02 04:45:49;;;;;;;19.48;8.27;;;;;;;14.92;86.87;101835.25;5018171;28;20049;-68
2022/07/02 04:48:16;;;;;;;21.70;9.27;;;;;;;15.32;85.34;101840.13;5020680;28;20069;-69
2022/07/02 04:50:43;;;;;;;16.70;8.68;;;;;;;15.94;82.06;101838.47;5023202;28;20049;-69
2022/07/02 04:53:09;;;;;;;17.38;9.38;;;;;;;15.84;82.90;101848.72;5024499;28;20141;-69
2022/07/02 04:55:35;;;;;;;16.67;8.20;;;;;;;15.88;83.38;101838.81;5023749;28;20049;-69
2022/07/02 04:58:01;;;;;;;19.25;9.02;;;;;;;16.28;81.39;101850.63;5026177;28;20037;-69
2022/07/02 05:00:28;;;;;;;17.85;8.02;;;;;;;15.51;83.27;101848.81;5024168;28;20060;-68
2022/07/02 05:02:55;;;;;;;14.52;8.30;;;;;;;15.49;84.52;101842.72;5020940;28;20143;-68
2022/07/02 05:05:23;;;;;;;16.20;8.30;;;;;;;15.64;83.57;101851.63;5025964;28;20059;-68
2022/07/02 05:07:49;;;;;;;12.55;8.40;;;;;;;15.65;84.38;101848.03;5025011;28;20080;-68
2022/07/02 05:10:15;;;;;;;17.80;8.05;;;;;;;15.91;83.93;101847.44;5023481;28;20076;-68
2022/07/02 05:12:42;;;;;;;12.82;8.23;;;;;;;16.43;82.46;101860.34;5025034;28;20068;-68
2022/07/02 05:15:09;;;;;;;16.10;8.90;;;;;;;16.78;80.75;101858.25;5025082;28;20490;-68
2022/07/02 05:17:36;;;;;;;14.32;7.13;;;;;;;16.89;79.46;101859.31;5023750;28;20046;-68
2022/07/02 05:20:02;;;;;;;12.52;8.32;;;;;;;16.89;78.24;101863.78;5024932;28;20073;-69
2022/07/02 05:22:30;;;;;;;11.27;6.82;;;;;;;17.23;79.34;101859.94;5023128;28;20061;-69
2022/07/02 05:24:56;;;;;;;17.05;7.45;;;;;;;17.45;75.94;101861.16;5023245;28;20498;-69
2022/07/02 05:27:22;;;;;;;14.52;6.90;;;;;;;17.67;75.93;101862.47;5025207;28;20053;-69
2022/07/02 05:29:49;;;;;;;18.00;7.00;;;;;;;18.43;74.13;101872.50;5023519;28;20069;-69
2022/07/02 05:32:15;;;;;;;15.45;7.25;;;;;;;18.44;73.10;101868.00;5023075;28;20560;-69
2022/07/02 05:34:41;;;;;;;14.43;6.78;;;;;;;18.38;73.11;101879.91;5028997;28;20107;-69
2022/07/02 05:37:08;;;;;;;13.07;6.28;;;;;;;18.77;71.87;101881.72;5028504;28;20099;-69
2022/07/02 05:39:35;;;;;;;9.60;6.18;;;;;;;18.94;72.31;101885.88;5027935;28;20379;-69
2022/07/02 05:42:02;;;;;;;13.98;5.78;;;;;;;18.72;72.13;101883.00;5028010;28;20075;-69
2022/07/02 05:44:28;;;;;;;10.52;6.25;;;;;;;19.13;70.92;101893.44;5034533;28;20072;-69
2022/07/02 05:46:54;;;;;;;12.75;6.30;;;;;;;20.03;67.33;101883.41;5024764;28;20072;-69
2022/07/02 05:49:21;;;;;;;15.63;5.70;;;;;;;19.32;68.13;101884.09;5029076;28;20049;-69
2022/07/02 05:51:47;;;;;;;12.95;5.88;;;;;;;18.92;69.74;101890.44;5028201;28;20478;-69
2022/07/02 05:54:13;;;;;;;13.40;5.50;;;;;;;19.15;69.47;101889.72;5029596;28;20072;-69
2022/07/02 05:56:41;;;;;;;7.35;5.25;;;;;;;20.05;66.12;101889.50;5026364;28;20606;-69
2022/07/02 05:59:07;;;;;;;8.13;5.70;;;;;;;20.24;65.35;101896.97;5013809;28;20107;-69
2022/07/02 06:01:34;;;;;;;10.93;5.53;;;;;;;20.49;63.08;101896.88;5016557;28;20084;-69
2022/07/02 06:04:00;;;;;;;11.18;5.57;;;;;;;20.59;65.39;101902.34;5026954;28;20045;-69
2022/07/02 06:09:10;;;;;;;10.10;5.05;;;;;;;21.45;60.32;101893.00;5027231;28;20575;-70
2022/07/02 06:11:36;;;;;;;9.50;5.43;;;;;;;21.78;59.90;101897.47;5027861;28;20463;-70
2022/07/02 06:14:04;;;;;;;12.40;4.75;;;;;;;21.57;60.22;101900.03;5030134;28;20046;-70
2022/07/02 06:16:30;;;;;;;8.95;4.53;;;;;;;21.67;61.05;101895.66;5026432;28;20057;-70
2022/07/02 06:18:57;;;;;;;6.15;4.97;;;;;;;22.18;59.72;101889.75;5016206;28;20049;-70
2022/07/02 06:21:23;;;;;;;11.38;5.22;;;;;;;22.42;57.83;101900.25;5029715;28;20045;-70
2022/07/02 06:23:49;;;;;;;13.93;5.78;;;;;;;21.77;59.18;101903.75;5025962;28;20103;-70
2022/07/02 06:26:16;;;;;;;7.47;4.78;;;;;;;21.74;59.79;101906.69;5028902;28;20076;-70
2022/07/02 06:28:43;;;;;;;9.48;4.60;;;;;;;21.64;60.94;101903.06;5027634;28;20523;-70
2022/07/02 06:31:10;;;;;;;6.47;4.53;;;;;;;22.21;58.01;101895.69;5027225;28;20072;-70
2022/07/02 06:33:39;;;;;;;7.50;4.13;;;;;;;22.77;59.11;101903.50;5026992;28;20485;-70
2022/07/02 06:36:07;;;;;;;6.75;4.22;;;;;;;23.01;55.80;101895.22;5028725;28;20045;-70
2022/07/02 06:38:33;;;;;;;13.32;4.72;;;;;;;23.18;54.82;101902.63;5025833;28;20567;-70
2022/07/02 06:41:00;;;;;;;7.75;3.83;;;;;;;23.11;54.97;101891.63;5025936;28;20050;-70
2022/07/02 06:43:26;;;;;;;10.45;4.32;;;;;;;22.50;55.63;101892.44;5027640;28;20042;-70
2022/07/02 06:45:52;;;;;;;5.40;3.95;;;;;;;22.74;55.89;101895.75;5011647;28;20036;-70
2022/07/02 06:48:20;;;;;;;8.35;3.67;;;;;;;23.38;53.96;101900.91;5032218;28;20053;-70
2022/07/02 06:50:47;;;;;;;11.82;4.45;;;;;;;23.61;55.22;101897.94;5018266;28;20088;-70
2022/07/02 06:53:15;;;;;;;7.55;3.47;;;;;;;24.35;53.03;101905.63;5026845;28;20041;-70
2022/07/02 06:55:41;;;;;;;5.38;3.47;;;;;;;24.60;48.47;101907.75;5027673;28;20076;-70
2022/07/02 06:58:08;;;;;;;7.28;3.47;;;;;;;25.02;47.75;101909.13;5027165;28;20468;-70
2022/07/02 07:00:34;;;;;;;9.55;3.28;;;;;;;24.36;48.87;101905.47;5025791;28;20567;-70
2022/07/02 07:03:03;;;;;;;4.45;2.78;;;;;;;24.84;48.70;101908.16;5026844;28;20046;-70
2022/07/02 07:05:32;;;;;;;5.82;2.67;;;;;;;24.98;43.78;101910.41;5027088;28;20099;-70
2022/07/02 07:07:58;;;;;;;10.48;3.13;;;;;;;25.05;45.95;101895.44;5025675;28;20386;-70
2022/07/02 07:10:25;;;;;;;5.30;2.60;;;;;;;25.34;46.14;101899.88;5025962;28;20072;-69
2022/07/02 07:12:51;;;;;;;6.15;3.25;;;;;;;26.30;45.50;101899.38;5015376;28;20128;-69
2022/07/02 07:15:17;;;;;;;7.13;3.13;;;;;;;26.36;46.72;101910.38;5022040;28;20123;-69
2022/07/02 07:17:44;;;;;;;7.57;3.28;;;;;;;27.33;42.03;101905.78;5025684;28;20068;-69
2022/07/02 07:20:16;;;;;;;4.55;2.80;;;;;;;26.38;42.42;101912.91;5024707;28;20142;-69
2022/07/02 07:22:44;;;;;;;11.07;2.60;;;;;;;26.29;45.36;101921.88;5006590;28;20045;-69
2022/07/02 07:25:10;;;;;;;6.18;2.40;;;;;;;25.94;41.49;101919.97;5006319;28;20073;-69
2022/07/02 07:27:37;;;;;;;9.40;2.33;;;;;;;25.74;40.14;101915.69;5019700;28;20061;-69
2022/07/02 07:30:04;;;;;;;7.03;2.17;;;;;;;26.71;39.20;101917.59;5025435;28;20119;-69
2022/07/02 07:32:30;;;;;;;4.68;2.20;;;;;;;26.27;39.03;101918.53;5025803;28;20123;-69
2022/07/02 07:34:56;;;;;;;7.88;2.72;;;;;;;26.06;42.15;101916.06;5028391;28;20046;-69
2022/07/02 07:37:22;;;;;;;8.30;2.40;;;;;;;25.55;43.26;101914.78;5026405;28;20069;-69
2022/07/02 07:39:50;;;;;;;5.93;2.47;;;;;;;25.55;42.61;101914.78;5012717;28;20123;-69
2022/07/02 07:42:16;;;;;;;6.18;2.00;;;;;;;25.91;41.59;101921.09;5018201;28;20452;-69
2022/07/02 07:44:43;;;;;;;4.35;2.03;;;;;;;26.70;39.69;101923.97;5015904;28;20053;-70
2022/07/02 07:47:09;;;;;;;5.15;2.22;;;;;;;27.61;38.27;101924.44;5029143;28;20049;-69
2022/07/02 07:49:35;;;;;;;5.72;1.90;;;;;;;26.88;41.43;101927.50;5021111;28;20049;-70
2022/07/02 07:52:02;;;;;;;4.85;2.20;;;;;;;27.65;37.92;101920.41;5029174;28;20071;-70
2022/07/02 07:54:28;;;;;;;14.18;2.60;;;;;;;28.09;41.02;101918.41;5032947;28;20054;-70
2022/07/02 07:56:56;;;;;;;14.60;2.10;;;;;;;28.62;39.40;101918.00;5030376;28;20707;-70
2022/07/02 07:59:22;;;;;;;6.97;2.00;;;;;;;28.65;34.84;101918.50;5019122;28;20045;-69
2022/07/02 08:01:49;;;;;;;7.15;1.85;;;;;;;29.59;34.10;101917.91;5017319;28;20092;-70
2022/07/02 08:04:15;;;;;;;3.08;1.80;;;;;;;29.39;33.26;101914.75;5025650;28;20083;-70
2022/07/02 08:06:41;;;;;;;8.35;1.80;;;;;;;28.77;35.01;101921.75;5026577;28;20046;-70
2022/07/02 08:09:08;;;;;;;5.75;1.63;;;;;;;27.15;36.17;101939.16;5023330;28;20045;-70
2022/07/02 08:11:35;;;;;;;4.20;1.75;;;;;;;26.08;36.36;101932.91;5026049;28;20049;-70
2022/07/02 08:14:02;;;;;;;3.90;1.33;;;;;;;26.36;35.31;101936.41;5028653;28;20073;-70
2022/07/02 08:16:29;;;;;;;3.65;1.80;;;;;;;26.83;36.59;101939.75;5022493;28;20103;-71
2022/07/02 08:18:55;;;;;;;3.95;1.58;;;;;;;26.52;35.36;101940.13;5024985;28;20095;-71
2022/07/02 08:21:21;;;;;;;4.85;1.90;;;;;;;26.19;37.94;101942.63;5025463;28;20041;-71
2022/07/02 08:23:48;;;;;;;8.38;1.67;;;;;;;26.92;41.20;101936.97;5027781;28;20397;-71
2022/07/02 08:26:14;;;;;;;5.55;1.80;;;;;;;26.92;35.34;101942.34;5026624;28;20041;-71
2022/07/02 08:28:40;;;;;;;4.03;1.52;;;;;;;27.94;35.80;101924.41;5024981;28;20045;-71
2022/07/02 08:31:08;;;;;;;4.47;1.60;;;;;;;27.74;37.50;101936.47;5027278;28;20728;-71
2022/07/02 08:33:35;;;;;;;3.25;1.48;;;;;;;28.01;38.90;101930.03;5026748;28;20077;-71
2022/07/02 08:36:02;;;;;;;4.45;1.55;;;;;;;27.74;35.41;101928.41;5023888;28;20065;-71
2022/07/02 08:38:28;;;;;;;6.22;1.58;;;;;;;27.64;34.45;101924.16;5025615;28;20045;-71
2022/07/02 08:40:55;;;;;;;6.53;1.73;;;;;;;27.55;32.93;101925.94;5025412;28;20041;-71
2022/07/02 08:43:25;;;;;;;9.13;1.70;;;;;;;28.17;34.46;101931.94;5016546;28;20042;-72
2022/07/02 08:45:52;;;;;;;5.88;2.00;;;;;;;28.31;33.35;101933.97;5019384;28;20065;-72
2022/07/02 08:48:21;;;;;;;2.95;1.40;;;;;;;28.38;32.81;101925.06;5044485;28;20057;-72
2022/07/02 08:50:49;;;;;;;5.20;1.60;;;;;;;28.26;33.15;101926.41;5024091;28;20042;-72
2022/07/02 08:53:17;;;;;;;7.07;2.25;;;;;;;27.23;32.31;101931.97;5026583;28;20095;-72
2022/07/02 08:55:44;;;;;;;4.43;1.67;;;;;;;27.46;35.61;101932.28;5039010;28;20044;-71
2022/07/02 08:58:12;;;;;;;5.85;1.50;;;;;;;27.53;34.76;101930.66;5025407;28;20034;-71
2022/07/02 09:00:39;;;;;;;5.88;1.85;;;;;;;27.12;34.36;101934.09;5024794;28;20042;-71
2022/07/02 09:03:08;;;;;;;4.88;1.92;;;;;;;26.39;36.07;101930.72;5024843;28;20048;-71
2022/07/02 09:05:38;;;;;;;5.10;1.73;;;;;;;26.66;39.07;101922.59;5024714;28;20045;-71
2022/07/02 09:08:06;;;;;;;5.80;1.70;;;;;;;27.72;34.61;101930.41;5024508;28;20049;-71
2022/07/02 09:10:34;;;;;;;3.33;1.48;;;;;;;28.15;34.10;101926.72;5026018;28;20041;-71
2022/07/02 09:13:01;;;;;;;3.17;1.75;;;;;;;27.22;35.16;101924.03;5023457;28;20462;-71
2022/07/02 09:15:27;;;;;;;7.20;1.80;;;;;;;26.89;33.25;101923.81;5014346;28;20076;-73
2022/07/02 09:17:54;;;;;;;3.30;1.38;;;;;;;26.44;32.91;101918.53;5011798;28;20045;-72
2022/07/02 09:20:20;;;;;;;4.93;1.70;;;;;;;27.29;35.00;101922.41;5004647;28;20042;-72
2022/07/02 09:22:51;;;;;;;5.75;1.50;;;;;;;26.99;32.33;101916.50;5005799;28;20560;-72
2022/07/02 09:25:20;;;;;;;3.00;1.20;;;;;;;27.36;32.82;101915.38;5022222;28;20072;-71
2022/07/02 09:27:48;;;;;;;5.40;1.92;;;;;;;28.09;31.96;101913.03;5041375;28;20071;-72
2022/07/02 09:30:18;;;;;;;2.78;1.40;;;;;;;28.78;31.41;101905.41;5039956;28;20572;-72
2022/07/02 09:32:46;;;;;;;2.22;1.20;;;;;;;29.24;30.75;101903.78;5024567;28;20463;-72
2022/07/02 09:35:20;;;;;;;2.55;1.13;;;;;;;29.12;29.28;101904.34;5027343;28;20077;-72
2022/07/02 09:37:48;;;;;;;6.93;1.60;;;;;;;28.67;32.09;101918.34;5018780;28;20074;-72
2022/07/02 09:40:15;;;;;;;3.78;1.48;;;;;;;27.79;33.55;101912.56;5009735;28;20119;-72
2022/07/02 09:42:46;;;;;;;2.90;1.40;;;;;;;28.20;31.30;101910.88;5012812;28;20127;-72
2022/07/02 09:45:14;;;;;;;6.28;1.50;;;;;;;27.92;31.54;101907.56;5020268;28;20045;-72
2022/07/02 09:47:44;;;;;;;8.15;1.70;;;;;;;27.88;32.38;101899.97;5021445;28;20486;-72
2022/07/02 09:50:12;;;;;;;3.53;1.30;;;;;;;27.76;30.45;101899.41;5024400;28;20042;-71
2022/07/02 09:52:49;;;;;;;4.70;1.63;;;;;;;27.78;36.68;101902.81;5015610;28;20058;-71
2022/07/02 09:55:20;;;;;;;2.83;1.35;;;;;;;27.24;31.54;101905.88;5005172;28;20378;-71
2022/07/02 09:57:50;;;;;;;2.35;1.33;;;;;;;27.46;35.23;101897.25;5005264;28;20042;-71
2022/07/02 10:00:16;;;;;;;2.28;1.50;;;;;;;27.65;33.21;101896.16;5018504;28;20567;-72
2022/07/02 10:02:43;;;;;;;11.07;1.80;;;;;;;27.56;34.10;101896.16;5022031;28;20123;-73
2022/07/02 10:05:09;;;;;;;3.47;1.42;;;;;;;28.33;30.34;101892.34;5025462;28;20088;-77
2022/07/02 10:07:36;;;;;;;5.65;1.40;;;;;;;28.39;30.16;101893.53;5023478;28;20049;-76
2022/07/02 10:10:05;;;;;;;1.83;1.30;;;;;;;29.17;31.81;101888.44;5022494;28;20115;-74
2022/07/02 10:12:32;;;;;;;12.85;1.77;;;;;;;29.58;30.36;101872.97;5025311;28;20490;-77
2022/07/02 10:15:04;;;;;;;2.30;1.25;;;;;;;29.73;30.91;101882.88;5013170;28;20049;-77
2022/07/02 10:17:34;;;;;;;5.07;1.50;;;;;;;29.82;29.13;101881.78;5021347;28;20056;-73
2022/07/02 10:20:02;;;;;;;3.90;1.40;;;;;;;30.43;29.71;101888.22;5021150;28;20045;-73
2022/07/02 10:22:29;;;;;;;2.78;1.20;;;;;;;30.20;31.07;101896.31;5039697;28;20056;-73
2022/07/02 10:24:55;;;;;;;4.03;1.63;;;;;;;30.14;28.45;101882.66;5045009;28;20072;-73
2022/07/02 10:27:24;;;;;;;13.07;1.77;;;;;;;30.59;27.08;101871.88;5032030;28;20045;-73
2022/07/02 10:29:51;;;;;;;3.70;1.20;;;;;;;30.75;27.25;101868.97;5047832;28;20049;-73
2022/07/02 10:32:26;;;;;;;2.80;1.50;;;;;;;32.09;29.19;101868.78;5034753;28;20497;-74
2022/07/02 10:35:06;;;;;;;6.47;1.50;;;;;;;32.49;28.55;101867.28;5027378;28;20045;-74
2022/07/02 10:37:32;;;;;;;4.40;1.20;;;;;;;32.50;26.48;101864.38;5028005;28;20497;-73
2022/07/02 10:40:02;;;;;;;3.25;1.60;;;;;;;30.04;27.33;101868.53;5025211;28;20452;-74
2022/07/02 10:42:40;;;;;;;5.90;1.45;;;;;;;30.70;28.01;101867.88;5025625;28;20076;-74
2022/07/02 10:45:12;;;;;;;3.00;1.30;;;;;;;30.07;27.85;101870.88;5022149;28;20427;-75
2022/07/02 10:47:53;;;;;;;3.60;1.55;;;;;;;29.94;28.19;101866.03;5022678;28;20634;-73
2022/07/02 10:50:20;;;;;;;2.80;1.48;;;;;;;30.09;27.56;101858.84;5026642;28;20053;-72
2022/07/02 10:52:52;;;;;;;3.72;1.90;;;;;;;30.07;27.75;101869.03;5025603;28;20099;-75
2022/07/02 10:55:26;;;;;;;6.75;1.48;;;;;;;30.14;31.63;101863.72;5026706;28;20056;-73
2022/07/02 10:57:58;;;;;;;5.95;1.60;;;;;;;29.97;28.19;101862.16;5027914;28;20103;-74
2022/07/02 11:00:30;;;;;;;2.70;1.20;;;;;;;28.89;27.76;101858.31;5027624;28;20049;-73
2022/07/02 11:02:57;;;;;;;6.10;1.63;;;;;;;29.39;29.72;101860.72;5028093;28;20087;-74
2022/07/02 11:05:24;;;;;;;4.35;1.55;;;;;;;27.64;29.45;101854.09;5027246;28;20100;-75
2022/07/02 11:07:50;;;;;;;7.68;1.70;;;;;;;27.51;32.26;101854.53;5026739;28;20049;-76
2022/07/02 11:10:17;;;;;;;3.45;1.27;;;;;;;27.78;30.25;101840.81;5025090;28;20054;-74
2022/07/02 11:12:53;;;;;;;6.72;1.50;;;;;;;28.46;29.93;101848.69;5022985;28;20076;-74
2022/07/02 11:15:32;;;;;;;3.38;1.52;;;;;;;29.38;31.83;101837.41;5019034;28;20123;-73
2022/07/02 11:18:03;;;;;;;6.15;1.35;;;;;;;30.43;28.63;101836.81;5018160;28;20050;-72
2022/07/02 11:20:30;;;;;;;3.93;1.40;;;;;;;30.06;27.38;101834.88;5025116;28;20061;-72
2022/07/02 11:22:57;;;;;;;4.07;1.85;;;;;;;29.62;29.23;101831.91;5026921;28;20096;-74